Marietta, Georgia
Current Conditions -  °F | °C
As of 8:58 AM on Saturday 22 Nov 2014 (Local Time) from KMGE Reporting Station
Few Clouds Few Clouds  
Wind Chill: 39°   Ceiling: Unl
Heat Index: 42°   Visibility: 10mi
Dew Point: 26°   Wind: 6mph
Humidity: 52%   Direction: 90°E
Pressure: 30.47"   Gusts: NA
Location:  33.95°N, 84.54°W
Report Text: KMGE 221358Z 09005KT 10SM FEW070 06/M04 A3047 RMK AO2A SLP325 T00571036 $
Loading
Personal Weather Stations






























Interactive Weather Map New forecast layout! Learn more

10-Day Weather Forecast

Advertisements
Track Severe Weather on mobile